sensor_id;sensor_type;location;lat;lon;timestamp;P1;durP1;ratioP1;P2;durP2;ratioP2
52888;SDS011;41413;52.770;6.892;2023-02-28T00:01:29;0.43;;;0.43;;
52888;SDS011;41413;52.770;6.892;2023-02-28T00:03:57;0.40;;;0.40;;
52888;SDS011;41413;52.770;6.892;2023-02-28T00:06:24;0.40;;;0.40;;
52888;SDS011;41413;52.770;6.892;2023-02-28T00:08:50;0.40;;;0.40;;
52888;SDS011;41413;52.770;6.892;2023-02-28T00:11:17;0.30;;;0.30;;
52888;SDS011;41413;52.770;6.892;2023-02-28T00:13:45;0.35;;;0.35;;
52888;SDS011;41413;52.770;6.892;2023-02-28T00:16:13;0.30;;;0.30;;
52888;SDS011;41413;52.770;6.892;2023-02-28T00:18:43;0.30;;;0.30;;
52888;SDS011;41413;52.770;6.892;2023-02-28T00:21:10;0.30;;;0.30;;
52888;SDS011;41413;52.770;6.892;2023-02-28T00:23:36;0.30;;;0.30;;
52888;SDS011;41413;52.770;6.892;2023-02-28T00:26:03;0.30;;;0.30;;
52888;SDS011;41413;52.770;6.892;2023-02-28T00:28:30;0.47;;;0.47;;
52888;SDS011;41413;52.770;6.892;2023-02-28T00:30:58;0.50;;;0.50;;
52888;SDS011;41413;52.770;6.892;2023-02-28T00:33:26;0.40;;;0.40;;
52888;SDS011;41413;52.770;6.892;2023-02-28T00:36:15;0.38;;;0.38;;
52888;SDS011;41413;52.770;6.892;2023-02-28T00:38:41;0.30;;;0.30;;
52888;SDS011;41413;52.770;6.892;2023-02-28T00:41:08;0.30;;;0.30;;
52888;SDS011;41413;52.770;6.892;2023-02-28T00:43:36;0.30;;;0.30;;
52888;SDS011;41413;52.770;6.892;2023-02-28T00:46:04;0.30;;;0.30;;
52888;SDS011;41413;52.770;6.892;2023-02-28T00:48:31;0.38;;;0.38;;
52888;SDS011;41413;52.770;6.892;2023-02-28T00:50:58;0.40;;;0.40;;
52888;SDS011;41413;52.770;6.892;2023-02-28T00:53:25;0.30;;;0.30;;
52888;SDS011;41413;52.770;6.892;2023-02-28T00:55:52;0.30;;;0.30;;
52888;SDS011;41413;52.770;6.892;2023-02-28T00:58:18;0.35;;;0.35;;
52888;SDS011;41413;52.770;6.892;2023-02-28T01:00:45;0.30;;;0.30;;
52888;SDS011;41413;52.770;6.892;2023-02-28T01:03:16;0.43;;;0.43;;
52888;SDS011;41413;52.770;6.892;2023-02-28T01:05:44;0.20;;;0.20;;
52888;SDS011;41413;52.770;6.892;2023-02-28T01:08:11;0.38;;;0.38;;
52888;SDS011;41413;52.770;6.892;2023-02-28T01:10:39;0.38;;;0.38;;
52888;SDS011;41413;52.770;6.892;2023-02-28T01:13:06;0.40;;;0.40;;
52888;SDS011;41413;52.770;6.892;2023-02-28T01:15:33;0.38;;;0.38;;
52888;SDS011;41413;52.770;6.892;2023-02-28T01:18:00;0.20;;;0.20;;
52888;SDS011;41413;52.770;6.892;2023-02-28T01:20:27;0.30;;;0.30;;
52888;SDS011;41413;52.770;6.892;2023-02-28T01:22:54;0.40;;;0.40;;
52888;SDS011;41413;52.770;6.892;2023-02-28T01:25:20;0.40;;;0.40;;
52888;SDS011;41413;52.770;6.892;2023-02-28T01:27:47;0.30;;;0.30;;
52888;SDS011;41413;52.770;6.892;2023-02-28T01:30:14;0.20;;;0.20;;
52888;SDS011;41413;52.770;6.892;2023-02-28T01:32:41;0.30;;;0.30;;
52888;SDS011;41413;52.770;6.892;2023-02-28T01:35:08;0.30;;;0.30;;
52888;SDS011;41413;52.770;6.892;2023-02-28T01:37:34;0.50;;;0.50;;
52888;SDS011;41413;52.770;6.892;2023-02-28T01:40:02;0.20;;;0.20;;
52888;SDS011;41413;52.770;6.892;2023-02-28T01:42:29;0.50;;;0.50;;
52888;SDS011;41413;52.770;6.892;2023-02-28T01:47:46;0.47;;;0.47;;
52888;SDS011;41413;52.770;6.892;2023-02-28T01:50:19;0.30;;;0.30;;
52888;SDS011;41413;52.770;6.892;2023-02-28T01:52:49;0.30;;;0.30;;
52888;SDS011;41413;52.770;6.892;2023-02-28T01:55:18;0.40;;;0.40;;
52888;SDS011;41413;52.770;6.892;2023-02-28T01:57:47;0.35;;;0.35;;
52888;SDS011;41413;52.770;6.892;2023-02-28T02:00:19;0.40;;;0.40;;
52888;SDS011;41413;52.770;6.892;2023-02-28T02:02:49;0.30;;;0.30;;
52888;SDS011;41413;52.770;6.892;2023-02-28T02:05:20;0.40;;;0.40;;
52888;SDS011;41413;52.770;6.892;2023-02-28T02:07:52;0.40;;;0.40;;
52888;SDS011;41413;52.770;6.892;2023-02-28T02:10:25;0.40;;;0.40;;
52888;SDS011;41413;52.770;6.892;2023-02-28T02:13:08;0.30;;;0.30;;
52888;SDS011;41413;52.770;6.892;2023-02-28T02:15:48;0.32;;;0.32;;
52888;SDS011;41413;52.770;6.892;2023-02-28T02:24:23;0.47;;;0.47;;
52888;SDS011;41413;52.770;6.892;2023-02-28T02:27:24;0.47;;;0.47;;
52888;SDS011;41413;52.770;6.892;2023-02-28T02:29:59;0.40;;;0.40;;
52888;SDS011;41413;52.770;6.892;2023-02-28T02:38:20;0.35;;;0.35;;
52888;SDS011;41413;52.770;6.892;2023-02-28T02:41:08;0.40;;;0.40;;
52888;SDS011;41413;52.770;6.892;2023-02-28T02:43:51;0.40;;;0.40;;
52888;SDS011;41413;52.770;6.892;2023-02-28T02:49:00;0.30;;;0.30;;
52888;SDS011;41413;52.770;6.892;2023-02-28T02:51:32;0.40;;;0.40;;
52888;SDS011;41413;52.770;6.892;2023-02-28T02:56:34;0.30;;;0.30;;
52888;SDS011;41413;52.770;6.892;2023-02-28T02:59:03;0.40;;;0.40;;
52888;SDS011;41413;52.770;6.892;2023-02-28T03:01:32;0.30;;;0.30;;
52888;SDS011;41413;52.770;6.892;2023-02-28T03:04:02;0.30;;;0.30;;
52888;SDS011;41413;52.770;6.892;2023-02-28T03:06:32;0.38;;;0.38;;
52888;SDS011;41413;52.770;6.892;2023-02-28T03:08:59;0.50;;;0.50;;
52888;SDS011;41413;52.770;6.892;2023-02-28T03:11:26;0.40;;;0.40;;
52888;SDS011;41413;52.770;6.892;2023-02-28T03:27:05;0.30;;;0.30;;
52888;SDS011;41413;52.770;6.892;2023-02-28T03:29:37;0.40;;;0.40;;
52888;SDS011;41413;52.770;6.892;2023-02-28T03:32:14;0.40;;;0.40;;
52888;SDS011;41413;52.770;6.892;2023-02-28T03:34:54;0.30;;;0.30;;
52888;SDS011;41413;52.770;6.892;2023-02-28T03:37:24;0.38;;;0.38;;
52888;SDS011;41413;52.770;6.892;2023-02-28T03:39:57;0.50;;;0.50;;
52888;SDS011;41413;52.770;6.892;2023-02-28T03:42:29;0.30;;;0.30;;
52888;SDS011;41413;52.770;6.892;2023-02-28T03:44:58;0.40;;;0.40;;
52888;SDS011;41413;52.770;6.892;2023-02-28T03:47:35;0.30;;;0.30;;
52888;SDS011;41413;52.770;6.892;2023-02-28T03:50:05;0.30;;;0.30;;
52888;SDS011;41413;52.770;6.892;2023-02-28T03:52:44;0.30;;;0.30;;
52888;SDS011;41413;52.770;6.892;2023-02-28T03:55:16;0.40;;;0.40;;
52888;SDS011;41413;52.770;6.892;2023-02-28T03:57:50;0.30;;;0.30;;
52888;SDS011;41413;52.770;6.892;2023-02-28T04:00:29;0.30;;;0.30;;
52888;SDS011;41413;52.770;6.892;2023-02-28T04:03:00;0.32;;;0.32;;
52888;SDS011;41413;52.770;6.892;2023-02-28T04:05:27;0.30;;;0.30;;
52888;SDS011;41413;52.770;6.892;2023-02-28T04:07:54;0.30;;;0.30;;
52888;SDS011;41413;52.770;6.892;2023-02-28T04:10:30;0.40;;;0.40;;
52888;SDS011;41413;52.770;6.892;2023-02-28T04:12:56;0.30;;;0.30;;
52888;SDS011;41413;52.770;6.892;2023-02-28T04:15:23;0.30;;;0.30;;
52888;SDS011;41413;52.770;6.892;2023-02-28T04:17:50;0.30;;;0.30;;
52888;SDS011;41413;52.770;6.892;2023-02-28T04:20:17;0.35;;;0.35;;
52888;SDS011;41413;52.770;6.892;2023-02-28T04:22:44;0.40;;;0.40;;
52888;SDS011;41413;52.770;6.892;2023-02-28T04:25:10;0.30;;;0.30;;
52888;SDS011;41413;52.770;6.892;2023-02-28T04:27:37;0.30;;;0.30;;
52888;SDS011;41413;52.770;6.892;2023-02-28T04:30:04;0.20;;;0.20;;
52888;SDS011;41413;52.770;6.892;2023-02-28T04:32:31;0.22;;;0.22;;
52888;SDS011;41413;52.770;6.892;2023-02-28T04:34:58;0.30;;;0.30;;
52888;SDS011;41413;52.770;6.892;2023-02-28T04:37:24;0.28;;;0.28;;
52888;SDS011;41413;52.770;6.892;2023-02-28T04:39:54;0.30;;;0.30;;
52888;SDS011;41413;52.770;6.892;2023-02-28T04:42:21;0.40;;;0.40;;
52888;SDS011;41413;52.770;6.892;2023-02-28T04:44:48;0.30;;;0.30;;
52888;SDS011;41413;52.770;6.892;2023-02-28T04:47:14;0.30;;;0.30;;
52888;SDS011;41413;52.770;6.892;2023-02-28T04:49:41;0.38;;;0.38;;
52888;SDS011;41413;52.770;6.892;2023-02-28T04:52:08;0.30;;;0.30;;
52888;SDS011;41413;52.770;6.892;2023-02-28T04:54:36;0.40;;;0.40;;
52888;SDS011;41413;52.770;6.892;2023-02-28T04:57:04;0.40;;;0.40;;
52888;SDS011;41413;52.770;6.892;2023-02-28T04:59:32;0.32;;;0.32;;
52888;SDS011;41413;52.770;6.892;2023-02-28T05:01:59;0.40;;;0.40;;
52888;SDS011;41413;52.770;6.892;2023-02-28T05:04:25;0.40;;;0.40;;
52888;SDS011;41413;52.770;6.892;2023-02-28T05:06:52;0.30;;;0.30;;
52888;SDS011;41413;52.770;6.892;2023-02-28T05:09:19;0.38;;;0.38;;
52888;SDS011;41413;52.770;6.892;2023-02-28T05:11:45;0.30;;;0.30;;
52888;SDS011;41413;52.770;6.892;2023-02-28T05:14:13;0.40;;;0.40;;
52888;SDS011;41413;52.770;6.892;2023-02-28T05:16:40;0.30;;;0.30;;
52888;SDS011;41413;52.770;6.892;2023-02-28T05:19:07;0.40;;;0.40;;
52888;SDS011;41413;52.770;6.892;2023-02-28T05:21:40;0.35;;;0.35;;
52888;SDS011;41413;52.770;6.892;2023-02-28T05:24:14;0.30;;;0.30;;
52888;SDS011;41413;52.770;6.892;2023-02-28T05:26:41;0.40;;;0.40;;
52888;SDS011;41413;52.770;6.892;2023-02-28T05:29:09;0.50;;;0.50;;
52888;SDS011;41413;52.770;6.892;2023-02-28T05:31:36;0.30;;;0.30;;
52888;SDS011;41413;52.770;6.892;2023-02-28T05:34:03;0.30;;;0.30;;
52888;SDS011;41413;52.770;6.892;2023-02-28T05:36:30;0.50;;;0.50;;
52888;SDS011;41413;52.770;6.892;2023-02-28T05:38:57;0.20;;;0.20;;
52888;SDS011;41413;52.770;6.892;2023-02-28T05:41:24;0.30;;;0.30;;
52888;SDS011;41413;52.770;6.892;2023-02-28T05:43:52;0.40;;;0.40;;
52888;SDS011;41413;52.770;6.892;2023-02-28T05:46:18;0.20;;;0.20;;
52888;SDS011;41413;52.770;6.892;2023-02-28T05:48:46;0.50;;;0.50;;
52888;SDS011;41413;52.770;6.892;2023-02-28T05:51:14;0.30;;;0.30;;
52888;SDS011;41413;52.770;6.892;2023-02-28T05:53:40;0.30;;;0.30;;
52888;SDS011;41413;52.770;6.892;2023-02-28T05:56:07;0.30;;;0.30;;
52888;SDS011;41413;52.770;6.892;2023-02-28T05:58:34;0.32;;;0.32;;
52888;SDS011;41413;52.770;6.892;2023-02-28T06:01:18;0.30;;;0.30;;
52888;SDS011;41413;52.770;6.892;2023-02-28T06:04:07;0.30;;;0.30;;
52888;SDS011;41413;52.770;6.892;2023-02-28T06:06:50;0.30;;;0.30;;
52888;SDS011;41413;52.770;6.892;2023-02-28T06:09:17;0.22;;;0.22;;
52888;SDS011;41413;52.770;6.892;2023-02-28T06:11:45;0.32;;;0.32;;
52888;SDS011;41413;52.770;6.892;2023-02-28T06:14:16;0.20;;;0.20;;
52888;SDS011;41413;52.770;6.892;2023-02-28T06:16:44;0.20;;;0.20;;
52888;SDS011;41413;52.770;6.892;2023-02-28T06:19:11;0.30;;;0.30;;
52888;SDS011;41413;52.770;6.892;2023-02-28T06:21:38;0.40;;;0.40;;
52888;SDS011;41413;52.770;6.892;2023-02-28T06:24:05;0.30;;;0.30;;
52888;SDS011;41413;52.770;6.892;2023-02-28T06:26:32;0.30;;;0.30;;
52888;SDS011;41413;52.770;6.892;2023-02-28T06:28:59;0.40;;;0.40;;
52888;SDS011;41413;52.770;6.892;2023-02-28T06:31:27;0.20;;;0.20;;
52888;SDS011;41413;52.770;6.892;2023-02-28T06:33:55;0.40;;;0.40;;
52888;SDS011;41413;52.770;6.892;2023-02-28T06:36:22;0.30;;;0.30;;
52888;SDS011;41413;52.770;6.892;2023-02-28T06:38:49;0.30;;;0.30;;
52888;SDS011;41413;52.770;6.892;2023-02-28T06:41:24;0.40;;;0.40;;
52888;SDS011;41413;52.770;6.892;2023-02-28T06:43:52;0.30;;;0.30;;
52888;SDS011;41413;52.770;6.892;2023-02-28T06:46:19;0.35;;;0.35;;
52888;SDS011;41413;52.770;6.892;2023-02-28T06:48:46;0.32;;;0.32;;
52888;SDS011;41413;52.770;6.892;2023-02-28T06:51:17;0.30;;;0.30;;
52888;SDS011;41413;52.770;6.892;2023-02-28T06:53:48;0.40;;;0.40;;
52888;SDS011;41413;52.770;6.892;2023-02-28T06:56:15;0.50;;;0.50;;
52888;SDS011;41413;52.770;6.892;2023-02-28T06:58:47;0.32;;;0.32;;
52888;SDS011;41413;52.770;6.892;2023-02-28T07:01:15;0.30;;;0.30;;
52888;SDS011;41413;52.770;6.892;2023-02-28T07:03:42;0.30;;;0.30;;
52888;SDS011;41413;52.770;6.892;2023-02-28T07:06:09;0.30;;;0.30;;
52888;SDS011;41413;52.770;6.892;2023-02-28T07:08:36;0.30;;;0.30;;
52888;SDS011;41413;52.770;6.892;2023-02-28T07:11:03;0.30;;;0.30;;
52888;SDS011;41413;52.770;6.892;2023-02-28T07:13:30;0.30;;;0.30;;
52888;SDS011;41413;52.770;6.892;2023-02-28T07:15:58;0.25;;;0.25;;
52888;SDS011;41413;52.770;6.892;2023-02-28T07:18:26;0.30;;;0.30;;
52888;SDS011;41413;52.770;6.892;2023-02-28T07:20:53;0.40;;;0.40;;
52888;SDS011;41413;52.770;6.892;2023-02-28T07:23:21;0.40;;;0.40;;
52888;SDS011;41413;52.770;6.892;2023-02-28T07:25:48;0.45;;;0.45;;
52888;SDS011;41413;52.770;6.892;2023-02-28T07:28:16;0.30;;;0.30;;
52888;SDS011;41413;52.770;6.892;2023-02-28T07:30:43;0.30;;;0.30;;
52888;SDS011;41413;52.770;6.892;2023-02-28T07:33:10;0.30;;;0.30;;
52888;SDS011;41413;52.770;6.892;2023-02-28T07:35:36;0.40;;;0.40;;
52888;SDS011;41413;52.770;6.892;2023-02-28T07:38:03;0.40;;;0.40;;
52888;SDS011;41413;52.770;6.892;2023-02-28T07:40:30;0.30;;;0.30;;
52888;SDS011;41413;52.770;6.892;2023-02-28T07:42:58;0.32;;;0.32;;
52888;SDS011;41413;52.770;6.892;2023-02-28T07:45:26;0.40;;;0.40;;
52888;SDS011;41413;52.770;6.892;2023-02-28T07:47:55;0.30;;;0.30;;
52888;SDS011;41413;52.770;6.892;2023-02-28T07:50:22;0.40;;;0.40;;
52888;SDS011;41413;52.770;6.892;2023-02-28T07:52:52;0.30;;;0.30;;
52888;SDS011;41413;52.770;6.892;2023-02-28T07:55:18;0.40;;;0.40;;
52888;SDS011;41413;52.770;6.892;2023-02-28T07:57:45;0.40;;;0.40;;
52888;SDS011;41413;52.770;6.892;2023-02-28T08:00:12;0.35;;;0.35;;
52888;SDS011;41413;52.770;6.892;2023-02-28T08:02:39;0.40;;;0.40;;
52888;SDS011;41413;52.770;6.892;2023-02-28T08:05:06;0.30;;;0.30;;
52888;SDS011;41413;52.770;6.892;2023-02-28T08:07:33;0.40;;;0.40;;
52888;SDS011;41413;52.770;6.892;2023-02-28T08:10:00;0.40;;;0.40;;
52888;SDS011;41413;52.770;6.892;2023-02-28T08:12:27;0.30;;;0.30;;
52888;SDS011;41413;52.770;6.892;2023-02-28T08:14:53;0.30;;;0.30;;
52888;SDS011;41413;52.770;6.892;2023-02-28T08:17:20;0.38;;;0.38;;
52888;SDS011;41413;52.770;6.892;2023-02-28T08:19:47;0.40;;;0.40;;
52888;SDS011;41413;52.770;6.892;2023-02-28T08:22:13;0.50;;;0.50;;
52888;SDS011;41413;52.770;6.892;2023-02-28T08:24:40;0.43;;;0.43;;
52888;SDS011;41413;52.770;6.892;2023-02-28T08:27:08;0.50;;;0.50;;
52888;SDS011;41413;52.770;6.892;2023-02-28T08:29:38;0.30;;;0.30;;
52888;SDS011;41413;52.770;6.892;2023-02-28T08:32:06;0.50;;;0.50;;
52888;SDS011;41413;52.770;6.892;2023-02-28T08:34:45;0.40;;;0.40;;
52888;SDS011;41413;52.770;6.892;2023-02-28T08:37:13;0.40;;;0.40;;
52888;SDS011;41413;52.770;6.892;2023-02-28T08:39:40;0.40;;;0.40;;
52888;SDS011;41413;52.770;6.892;2023-02-28T08:42:06;0.40;;;0.40;;
52888;SDS011;41413;52.770;6.892;2023-02-28T08:44:33;0.50;;;0.50;;
52888;SDS011;41413;52.770;6.892;2023-02-28T08:47:00;0.40;;;0.40;;
52888;SDS011;41413;52.770;6.892;2023-02-28T08:49:27;0.50;;;0.50;;
52888;SDS011;41413;52.770;6.892;2023-02-28T08:51:54;0.60;;;0.60;;
52888;SDS011;41413;52.770;6.892;2023-02-28T08:54:23;0.40;;;0.40;;
52888;SDS011;41413;52.770;6.892;2023-02-28T08:56:50;0.50;;;0.50;;
52888;SDS011;41413;52.770;6.892;2023-02-28T08:59:18;0.60;;;0.60;;
52888;SDS011;41413;52.770;6.892;2023-02-28T09:01:45;0.50;;;0.50;;
52888;SDS011;41413;52.770;6.892;2023-02-28T09:04:12;0.52;;;0.52;;
52888;SDS011;41413;52.770;6.892;2023-02-28T09:06:44;0.60;;;0.60;;
52888;SDS011;41413;52.770;6.892;2023-02-28T09:09:11;0.50;;;0.50;;
52888;SDS011;41413;52.770;6.892;2023-02-28T09:11:38;0.60;;;0.60;;
52888;SDS011;41413;52.770;6.892;2023-02-28T09:14:05;0.70;;;0.70;;
52888;SDS011;41413;52.770;6.892;2023-02-28T09:16:32;0.50;;;0.50;;
52888;SDS011;41413;52.770;6.892;2023-02-28T09:19:00;0.60;;;0.60;;
52888;SDS011;41413;52.770;6.892;2023-02-28T09:21:27;0.70;;;0.70;;
52888;SDS011;41413;52.770;6.892;2023-02-28T09:23:55;0.60;;;0.60;;
52888;SDS011;41413;52.770;6.892;2023-02-28T09:26:23;0.80;;;0.80;;
52888;SDS011;41413;52.770;6.892;2023-02-28T09:28:51;0.70;;;0.70;;
52888;SDS011;41413;52.770;6.892;2023-02-28T09:31:27;0.60;;;0.60;;
52888;SDS011;41413;52.770;6.892;2023-02-28T09:33:55;0.85;;;0.85;;
52888;SDS011;41413;52.770;6.892;2023-02-28T09:36:23;0.70;;;0.70;;
52888;SDS011;41413;52.770;6.892;2023-02-28T09:41:39;0.80;;;0.80;;
52888;SDS011;41413;52.770;6.892;2023-02-28T09:44:17;0.80;;;0.80;;
52888;SDS011;41413;52.770;6.892;2023-02-28T09:47:01;0.60;;;0.60;;
52888;SDS011;41413;52.770;6.892;2023-02-28T09:49:40;0.60;;;0.60;;
52888;SDS011;41413;52.770;6.892;2023-02-28T09:52:10;0.52;;;0.52;;
52888;SDS011;41413;52.770;6.892;2023-02-28T09:54:49;0.60;;;0.60;;
52888;SDS011;41413;52.770;6.892;2023-02-28T09:57:31;0.60;;;0.60;;
52888;SDS011;41413;52.770;6.892;2023-02-28T10:02:53;0.70;;;0.70;;
52888;SDS011;41413;52.770;6.892;2023-02-28T10:05:37;0.60;;;0.60;;
52888;SDS011;41413;52.770;6.892;2023-02-28T10:10:51;0.70;;;0.70;;
52888;SDS011;41413;52.770;6.892;2023-02-28T10:16:37;0.80;;;0.80;;
52888;SDS011;41413;52.770;6.892;2023-02-28T10:18:51;0.88;;;0.88;;
52888;SDS011;41413;52.770;6.892;2023-02-28T10:22:08;0.55;;;0.55;;
52888;SDS011;41413;52.770;6.892;2023-02-28T10:24:29;0.77;;;0.77;;
52888;SDS011;41413;52.770;6.892;2023-02-28T10:27:13;0.53;;;0.53;;
52888;SDS011;41413;52.770;6.892;2023-02-28T10:29:43;1.00;;;1.00;;
52888;SDS011;41413;52.770;6.892;2023-02-28T10:32:13;0.68;;;0.68;;
52888;SDS011;41413;52.770;6.892;2023-02-28T10:34:43;0.73;;;0.73;;
52888;SDS011;41413;52.770;6.892;2023-02-28T10:37:11;0.98;;;0.98;;
52888;SDS011;41413;52.770;6.892;2023-02-28T10:39:43;0.80;;;0.80;;
52888;SDS011;41413;52.770;6.892;2023-02-28T10:42:21;0.60;;;0.60;;
52888;SDS011;41413;52.770;6.892;2023-02-28T10:45:05;1.00;;;1.00;;
52888;SDS011;41413;52.770;6.892;2023-02-28T10:50:50;0.85;;;0.85;;
52888;SDS011;41413;52.770;6.892;2023-02-28T10:55:57;0.70;;;0.70;;
52888;SDS011;41413;52.770;6.892;2023-02-28T10:58:28;0.80;;;0.80;;
52888;SDS011;41413;52.770;6.892;2023-02-28T11:00:58;0.73;;;0.73;;
52888;SDS011;41413;52.770;6.892;2023-02-28T11:03:33;0.82;;;0.82;;
52888;SDS011;41413;52.770;6.892;2023-02-28T11:06:08;0.73;;;0.73;;
52888;SDS011;41413;52.770;6.892;2023-02-28T11:08:48;0.80;;;0.80;;
52888;SDS011;41413;52.770;6.892;2023-02-28T11:11:18;0.73;;;0.73;;
52888;SDS011;41413;52.770;6.892;2023-02-28T11:13:47;0.70;;;0.70;;
52888;SDS011;41413;52.770;6.892;2023-02-28T11:16:18;0.75;;;0.75;;
52888;SDS011;41413;52.770;6.892;2023-02-28T11:18:48;1.00;;;1.00;;
52888;SDS011;41413;52.770;6.892;2023-02-28T11:21:30;0.73;;;0.73;;
52888;SDS011;41413;52.770;6.892;2023-02-28T11:29:33;0.70;;;0.70;;
52888;SDS011;41413;52.770;6.892;2023-02-28T11:35:02;0.63;;;0.63;;
52888;SDS011;41413;52.770;6.892;2023-02-28T11:37:39;0.60;;;0.60;;
52888;SDS011;41413;52.770;6.892;2023-02-28T11:40:13;1.00;;;1.00;;
52888;SDS011;41413;52.770;6.892;2023-02-28T11:42:56;0.82;;;0.82;;
52888;SDS011;41413;52.770;6.892;2023-02-28T11:48:40;0.80;;;0.80;;
52888;SDS011;41413;52.770;6.892;2023-02-28T11:51:18;0.60;;;0.60;;
52888;SDS011;41413;52.770;6.892;2023-02-28T11:56:33;0.77;;;0.77;;
52888;SDS011;41413;52.770;6.892;2023-02-28T11:59:28;0.70;;;0.70;;
52888;SDS011;41413;52.770;6.892;2023-02-28T12:02:05;0.50;;;0.50;;
52888;SDS011;41413;52.770;6.892;2023-02-28T12:10:14;0.70;;;0.70;;
52888;SDS011;41413;52.770;6.892;2023-02-28T12:18:36;0.60;;;0.60;;
52888;SDS011;41413;52.770;6.892;2023-02-28T12:21:17;0.70;;;0.70;;
52888;SDS011;41413;52.770;6.892;2023-02-28T12:26:55;0.60;;;0.60;;
52888;SDS011;41413;52.770;6.892;2023-02-28T12:29:28;0.40;;;0.40;;
52888;SDS011;41413;52.770;6.892;2023-02-28T12:32:16;0.50;;;0.50;;
52888;SDS011;41413;52.770;6.892;2023-02-28T12:35:03;0.50;;;0.50;;
52888;SDS011;41413;52.770;6.892;2023-02-28T12:37:47;0.60;;;0.60;;
52888;SDS011;41413;52.770;6.892;2023-02-28T12:40:26;0.40;;;0.40;;
52888;SDS011;41413;52.770;6.892;2023-02-28T12:43:08;0.55;;;0.55;;
52888;SDS011;41413;52.770;6.892;2023-02-28T12:45:56;0.63;;;0.63;;
52888;SDS011;41413;52.770;6.892;2023-02-28T12:48:29;0.60;;;0.60;;
52888;SDS011;41413;52.770;6.892;2023-02-28T12:51:03;0.52;;;0.52;;
52888;SDS011;41413;52.770;6.892;2023-02-28T12:53:36;0.60;;;0.60;;
52888;SDS011;41413;52.770;6.892;2023-02-28T13:07:47;0.45;;;0.45;;
52888;SDS011;41413;52.770;6.892;2023-02-28T13:10:44;0.40;;;0.40;;
52888;SDS011;41413;52.770;6.892;2023-02-28T13:13:16;0.50;;;0.50;;
52888;SDS011;41413;52.770;6.892;2023-02-28T13:21:22;0.40;;;0.40;;
52888;SDS011;41413;52.770;6.892;2023-02-28T13:28:58;0.40;;;0.40;;
52888;SDS011;41413;52.770;6.892;2023-02-28T13:31:30;0.50;;;0.50;;
52888;SDS011;41413;52.770;6.892;2023-02-28T13:34:12;0.50;;;0.50;;
52888;SDS011;41413;52.770;6.892;2023-02-28T13:36:40;0.65;;;0.65;;
52888;SDS011;41413;52.770;6.892;2023-02-28T13:42:22;0.50;;;0.50;;
52888;SDS011;41413;52.770;6.892;2023-02-28T13:53:06;0.40;;;0.40;;
52888;SDS011;41413;52.770;6.892;2023-02-28T13:58:51;0.40;;;0.40;;
52888;SDS011;41413;52.770;6.892;2023-02-28T14:04:42;0.40;;;0.40;;
52888;SDS011;41413;52.770;6.892;2023-02-28T14:07:17;0.57;;;0.57;;
52888;SDS011;41413;52.770;6.892;2023-02-28T14:09:49;0.50;;;0.50;;
52888;SDS011;41413;52.770;6.892;2023-02-28T14:18:17;0.57;;;0.57;;
52888;SDS011;41413;52.770;6.892;2023-02-28T14:20:54;0.50;;;0.50;;
52888;SDS011;41413;52.770;6.892;2023-02-28T14:23:46;0.50;;;0.50;;
52888;SDS011;41413;52.770;6.892;2023-02-28T14:26:52;0.45;;;0.45;;
52888;SDS011;41413;52.770;6.892;2023-02-28T14:37:42;0.45;;;0.45;;
52888;SDS011;41413;52.770;6.892;2023-02-28T14:40:17;0.50;;;0.50;;
52888;SDS011;41413;52.770;6.892;2023-02-28T14:42:57;0.50;;;0.50;;
52888;SDS011;41413;52.770;6.892;2023-02-28T14:45:30;0.60;;;0.60;;
52888;SDS011;41413;52.770;6.892;2023-02-28T14:48:02;0.50;;;0.50;;
52888;SDS011;41413;52.770;6.892;2023-02-28T14:50:35;0.50;;;0.50;;
52888;SDS011;41413;52.770;6.892;2023-02-28T14:53:03;0.60;;;0.60;;
52888;SDS011;41413;52.770;6.892;2023-02-28T14:55:34;0.50;;;0.50;;
52888;SDS011;41413;52.770;6.892;2023-02-28T14:58:05;0.40;;;0.40;;
52888;SDS011;41413;52.770;6.892;2023-02-28T15:00:36;0.40;;;0.40;;
52888;SDS011;41413;52.770;6.892;2023-02-28T15:05:51;0.50;;;0.50;;
52888;SDS011;41413;52.770;6.892;2023-02-28T15:08:20;0.60;;;0.60;;
52888;SDS011;41413;52.770;6.892;2023-02-28T15:11:05;0.40;;;0.40;;
52888;SDS011;41413;52.770;6.892;2023-02-28T15:16:13;0.50;;;0.50;;
52888;SDS011;41413;52.770;6.892;2023-02-28T15:18:53;0.50;;;0.50;;
52888;SDS011;41413;52.770;6.892;2023-02-28T15:21:24;0.30;;;0.30;;
52888;SDS011;41413;52.770;6.892;2023-02-28T15:24:11;0.50;;;0.50;;
52888;SDS011;41413;52.770;6.892;2023-02-28T15:26:43;0.40;;;0.40;;
52888;SDS011;41413;52.770;6.892;2023-02-28T15:29:18;0.50;;;0.50;;
52888;SDS011;41413;52.770;6.892;2023-02-28T15:31:49;0.47;;;0.47;;
52888;SDS011;41413;52.770;6.892;2023-02-28T15:37:25;0.40;;;0.40;;
52888;SDS011;41413;52.770;6.892;2023-02-28T15:39:57;0.50;;;0.50;;
52888;SDS011;41413;52.770;6.892;2023-02-28T15:42:37;0.40;;;0.40;;
52888;SDS011;41413;52.770;6.892;2023-02-28T15:45:04;0.40;;;0.40;;
52888;SDS011;41413;52.770;6.892;2023-02-28T15:47:31;0.40;;;0.40;;
52888;SDS011;41413;52.770;6.892;2023-02-28T15:50:03;0.30;;;0.30;;
52888;SDS011;41413;52.770;6.892;2023-02-28T15:52:39;0.63;;;0.63;;
52888;SDS011;41413;52.770;6.892;2023-02-28T15:55:09;0.40;;;0.40;;
52888;SDS011;41413;52.770;6.892;2023-02-28T15:57:48;0.40;;;0.40;;
52888;SDS011;41413;52.770;6.892;2023-02-28T16:00:22;0.50;;;0.50;;
52888;SDS011;41413;52.770;6.892;2023-02-28T16:02:51;0.40;;;0.40;;
52888;SDS011;41413;52.770;6.892;2023-02-28T16:05:27;0.45;;;0.45;;
52888;SDS011;41413;52.770;6.892;2023-02-28T16:08:00;0.50;;;0.50;;
52888;SDS011;41413;52.770;6.892;2023-02-28T16:10:36;0.40;;;0.40;;
52888;SDS011;41413;52.770;6.892;2023-02-28T16:13:03;0.38;;;0.38;;
52888;SDS011;41413;52.770;6.892;2023-02-28T16:15:31;0.40;;;0.40;;
52888;SDS011;41413;52.770;6.892;2023-02-28T16:18:08;0.47;;;0.47;;
52888;SDS011;41413;52.770;6.892;2023-02-28T16:20:37;0.43;;;0.43;;
52888;SDS011;41413;52.770;6.892;2023-02-28T16:23:04;0.47;;;0.47;;
52888;SDS011;41413;52.770;6.892;2023-02-28T16:25:35;0.40;;;0.40;;
52888;SDS011;41413;52.770;6.892;2023-02-28T16:28:06;0.43;;;0.43;;
52888;SDS011;41413;52.770;6.892;2023-02-28T16:30:53;0.60;;;0.60;;
52888;SDS011;41413;52.770;6.892;2023-02-28T16:33:20;0.50;;;0.50;;
52888;SDS011;41413;52.770;6.892;2023-02-28T16:35:47;0.50;;;0.50;;
52888;SDS011;41413;52.770;6.892;2023-02-28T16:38:13;0.60;;;0.60;;
52888;SDS011;41413;52.770;6.892;2023-02-28T16:40:40;0.40;;;0.40;;
52888;SDS011;41413;52.770;6.892;2023-02-28T16:43:08;0.60;;;0.60;;
52888;SDS011;41413;52.770;6.892;2023-02-28T16:45:41;0.50;;;0.50;;
52888;SDS011;41413;52.770;6.892;2023-02-28T16:48:11;0.68;;;0.68;;
52888;SDS011;41413;52.770;6.892;2023-02-28T16:50:40;0.40;;;0.40;;
52888;SDS011;41413;52.770;6.892;2023-02-28T16:53:07;0.50;;;0.50;;
52888;SDS011;41413;52.770;6.892;2023-02-28T16:55:34;0.47;;;0.47;;
52888;SDS011;41413;52.770;6.892;2023-02-28T16:58:02;0.43;;;0.43;;
52888;SDS011;41413;52.770;6.892;2023-02-28T17:00:30;0.40;;;0.40;;
52888;SDS011;41413;52.770;6.892;2023-02-28T17:02:58;0.40;;;0.40;;
52888;SDS011;41413;52.770;6.892;2023-02-28T17:05:25;0.40;;;0.40;;
52888;SDS011;41413;52.770;6.892;2023-02-28T17:07:54;0.45;;;0.45;;
52888;SDS011;41413;52.770;6.892;2023-02-28T17:10:22;0.30;;;0.30;;
52888;SDS011;41413;52.770;6.892;2023-02-28T17:12:51;0.40;;;0.40;;
52888;SDS011;41413;52.770;6.892;2023-02-28T17:15:21;0.43;;;0.43;;
52888;SDS011;41413;52.770;6.892;2023-02-28T17:17:48;0.50;;;0.50;;
52888;SDS011;41413;52.770;6.892;2023-02-28T17:20:16;0.40;;;0.40;;
52888;SDS011;41413;52.770;6.892;2023-02-28T17:22:51;0.45;;;0.45;;
52888;SDS011;41413;52.770;6.892;2023-02-28T17:25:19;0.65;;;0.65;;
52888;SDS011;41413;52.770;6.892;2023-02-28T17:27:46;0.68;;;0.68;;
52888;SDS011;41413;52.770;6.892;2023-02-28T17:30:14;0.57;;;0.57;;
52888;SDS011;41413;52.770;6.892;2023-02-28T17:32:43;0.40;;;0.40;;